createdAt,value
2022-10-01T00:00:13.391Z,10.38
2022-10-01T00:05:21.315Z,12.75
2022-10-01T00:07:48.833Z,9.60
2022-10-01T00:10:15.997Z,9.10
2022-10-01T00:12:47.858Z,14.20
2022-10-01T00:15:19.405Z,10.05
2022-10-01T00:17:45.879Z,10.82
2022-10-01T00:20:14.591Z,9.18
2022-10-01T00:22:41.508Z,9.30
2022-10-01T00:25:08.309Z,9.80
2022-10-01T00:27:35.861Z,10.82
2022-10-01T00:30:13.112Z,9.32
2022-10-01T00:38:05.475Z,8.05
2022-10-01T00:40:33.838Z,9.18
2022-10-01T00:43:00.323Z,8.65
2022-10-01T00:48:07.899Z,13.20
2022-10-01T00:50:35.147Z,10.30
2022-10-01T00:53:05.209Z,10.60
2022-10-01T00:55:36.230Z,9.75
2022-10-01T00:58:06.098Z,8.68
2022-10-01T01:00:32.803Z,8.57
2022-10-01T01:02:59.273Z,7.22
2022-10-01T01:08:06.345Z,7.35
2022-10-01T01:11:03.929Z,7.93
2022-10-01T01:13:38.207Z,7.40
2022-10-01T01:16:14.183Z,6.73
2022-10-01T01:19:01.178Z,7.25
2022-10-01T01:24:49.323Z,9.60
2022-10-01T01:27:41.111Z,7.22
2022-10-01T01:30:13.877Z,8.48
2022-10-01T01:32:57.300Z,6.28
2022-10-01T01:35:33.063Z,6.78
2022-10-01T01:38:03.605Z,5.70
2022-10-01T01:43:20.521Z,7.00
2022-10-01T01:45:49.688Z,6.28
2022-10-01T01:48:16.326Z,6.68
2022-10-01T01:50:49.855Z,7.72
2022-10-01T01:53:16.497Z,8.55
2022-10-01T01:58:28.455Z,8.30
2022-10-01T02:01:03.225Z,9.48
2022-10-01T02:03:30.059Z,9.18
2022-10-01T02:06:06.184Z,9.45
2022-10-01T02:08:42.652Z,9.48
2022-10-01T02:17:21.807Z,7.35
2022-10-01T02:20:03.841Z,9.48
2022-10-01T02:22:36.050Z,8.50
2022-10-01T02:25:04.500Z,9.52
2022-10-01T02:27:36.140Z,7.32
2022-10-01T02:30:19.625Z,7.13
2022-10-01T02:32:47.621Z,7.13
2022-10-01T02:35:20.919Z,7.30
2022-10-01T02:37:51.276Z,7.75
2022-10-01T02:40:21.008Z,7.05
2022-10-01T02:45:32.516Z,4.70
2022-10-01T02:48:04.383Z,3.90
2022-10-01T02:53:22.386Z,5.18
2022-10-01T02:55:57.943Z,3.45
2022-10-01T02:58:24.450Z,4.13
2022-10-01T03:03:40.269Z,4.95
2022-10-01T03:08:47.154Z,4.20
2022-10-01T03:11:22.602Z,4.53
2022-10-01T03:16:29.996Z,4.45
2022-10-01T03:18:56.490Z,4.28
2022-10-01T03:21:23.052Z,5.22
2022-10-01T03:23:49.510Z,3.70
2022-10-01T03:26:15.980Z,4.38
2022-10-01T03:28:42.499Z,4.25
2022-10-01T03:33:51.317Z,4.05
2022-10-01T03:38:58.540Z,4.22
2022-10-01T03:41:25.255Z,4.15
2022-10-01T03:43:55.069Z,4.75
2022-10-01T03:46:23.605Z,5.88
2022-10-01T03:48:50.619Z,5.05
2022-10-01T03:51:19.895Z,5.82
2022-10-01T03:53:47.926Z,4.28
2022-10-01T03:58:56.008Z,6.25
2022-10-01T04:01:22.621Z,4.03
2022-10-01T04:03:50.301Z,6.43
2022-10-01T04:06:20.936Z,14.60
2022-10-01T04:08:47.608Z,6.10
2022-10-01T04:11:14.429Z,7.32
2022-10-01T04:16:07.121Z,6.07
2022-10-01T04:18:34.558Z,7.60
2022-10-01T04:21:01.305Z,10.00
2022-10-01T04:23:35.402Z,7.53
2022-10-01T04:26:05.190Z,10.95
2022-10-01T04:28:32.143Z,9.00
2022-10-01T04:33:57.679Z,8.07
2022-10-01T04:39:05.564Z,8.00
2022-10-01T04:44:12.810Z,7.63
2022-10-01T04:46:39.923Z,7.50
2022-10-01T04:49:06.409Z,11.43
2022-10-01T04:54:25.664Z,11.55
2022-10-01T04:59:33.575Z,8.32
2022-10-01T05:02:00.119Z,8.88
2022-10-01T05:04:27.512Z,11.90
2022-10-01T05:06:54.016Z,9.32
2022-10-01T05:09:24.272Z,7.90
2022-10-01T05:11:52.040Z,11.45
2022-10-01T05:17:09.088Z,12.55
2022-10-01T05:19:35.582Z,12.57
2022-10-01T05:22:02.126Z,9.88
2022-10-01T05:24:29.256Z,11.85
2022-10-01T05:26:55.743Z,10.95
2022-10-01T05:29:22.278Z,12.75
2022-10-01T05:31:49.576Z,13.55
2022-10-01T05:34:16.192Z,11.23
2022-10-01T05:36:42.718Z,15.32
2022-10-01T05:39:09.732Z,13.63
2022-10-01T05:44:22.584Z,14.75
2022-10-01T05:46:49.342Z,19.50
2022-10-01T05:51:51.798Z,10.13
2022-10-01T05:56:58.673Z,17.95
2022-10-01T05:59:28.430Z,14.95
2022-10-01T06:01:57.719Z,14.40
2022-10-01T06:04:24.436Z,12.93
2022-10-01T06:06:50.994Z,7.60
2022-10-01T06:09:17.677Z,13.90
2022-10-01T06:11:44.142Z,10.88
2022-10-01T06:14:10.797Z,16.00
2022-10-01T06:22:15.086Z,10.07
2022-10-01T06:24:41.776Z,10.65
2022-10-01T06:27:08.314Z,11.35
2022-10-01T06:29:34.786Z,12.07
2022-10-01T06:34:42.075Z,14.00
2022-10-01T06:37:12.403Z,9.48
2022-10-01T06:39:38.944Z,12.02
2022-10-01T06:42:05.595Z,15.32
2022-10-01T06:44:40.061Z,12.82
2022-10-01T06:49:47.954Z,10.93
2022-10-01T06:55:16.611Z,11.02
2022-10-01T06:57:43.838Z,15.13
2022-10-01T07:00:11.403Z,13.55
2022-10-01T07:02:38.372Z,16.30
2022-10-01T07:05:13.466Z,21.52
2022-10-01T07:07:40.009Z,18.10
2022-10-01T07:10:09.290Z,20.38
2022-10-01T07:12:36.714Z,14.55
2022-10-01T07:15:05.801Z,16.92
2022-10-01T07:20:25.609Z,17.15
2022-10-01T07:25:51.117Z,15.20
2022-10-01T07:28:20.251Z,16.13
2022-10-01T07:31:12.048Z,19.60
2022-10-01T07:33:39.149Z,14.07
2022-10-01T07:36:08.797Z,13.77
2022-10-01T07:38:47.998Z,15.88
2022-10-01T07:41:16.848Z,9.98
2022-10-01T07:43:43.864Z,14.98
2022-10-01T07:46:10.629Z,10.05
2022-10-01T07:48:37.210Z,16.45
2022-10-01T07:51:03.892Z,12.98
2022-10-01T07:53:31.007Z,15.02
2022-10-01T07:58:43.366Z,11.15
2022-10-01T08:01:10.077Z,10.20
2022-10-01T08:06:24.570Z,7.53
2022-10-01T08:08:52.188Z,12.27
2022-10-01T08:11:18.722Z,10.05
2022-10-01T08:13:48.801Z,10.75
2022-10-01T08:16:15.329Z,12.13
2022-10-01T08:18:41.850Z,6.75
2022-10-01T08:21:09.019Z,7.88
2022-10-01T08:23:36.339Z,8.38
2022-10-01T08:26:07.842Z,7.40
2022-10-01T08:34:04.009Z,12.93
2022-10-01T08:36:30.851Z,10.95
2022-10-01T08:38:57.587Z,11.57
2022-10-01T08:41:39.591Z,10.93
2022-10-01T08:44:07.497Z,10.00
2022-10-01T08:46:36.432Z,11.40
2022-10-01T08:49:16.217Z,9.63
2022-10-01T08:52:10.834Z,9.70
2022-10-01T08:54:41.381Z,8.93
2022-10-01T08:57:30.290Z,9.57
2022-10-01T08:59:59.514Z,10.70
2022-10-01T09:02:29.169Z,9.52
2022-10-01T09:05:01.516Z,10.63
2022-10-01T09:08:15.204Z,12.65
2022-10-01T09:10:46.599Z,15.90
2022-10-01T09:13:16.027Z,7.70
2022-10-01T09:16:01.902Z,15.57
2022-10-01T09:18:40.320Z,11.98
2022-10-01T09:21:30.242Z,12.02
2022-10-01T09:26:48.908Z,6.47
2022-10-01T09:35:48.498Z,11.68
2022-10-01T09:38:36.897Z,11.93
2022-10-01T09:41:04.913Z,11.52
2022-10-01T09:43:36.929Z,10.00
2022-10-01T09:46:14.726Z,12.20
2022-10-01T09:48:44.740Z,9.38
2022-10-01T09:51:15.187Z,10.68
2022-10-01T09:53:47.020Z,13.68
2022-10-01T09:56:27.238Z,13.73
2022-10-01T09:58:55.334Z,10.52
2022-10-01T10:01:37.790Z,9.90
2022-10-01T10:04:04.731Z,7.45
2022-10-01T10:06:35.791Z,9.70
2022-10-01T10:11:43.161Z,11.85
2022-10-01T10:14:18.119Z,8.27
2022-10-01T10:19:24.199Z,11.05
2022-10-01T10:21:53.039Z,7.80
2022-10-01T10:24:26.441Z,12.73
2022-10-01T10:26:55.774Z,13.68
2022-10-01T10:38:01.573Z,8.27
2022-10-01T10:40:34.435Z,9.05
2022-10-01T10:45:43.911Z,8.68
2022-10-01T10:51:05.203Z,10.00
2022-10-01T10:53:47.382Z,6.60
2022-10-01T10:56:31.041Z,8.68
2022-10-01T10:59:08.236Z,6.38
2022-10-01T11:01:37.762Z,7.95
2022-10-01T11:04:38.839Z,9.48
2022-10-01T11:07:05.834Z,8.73
2022-10-01T11:09:58.657Z,11.18
2022-10-01T11:12:52.251Z,10.52
2022-10-01T11:16:07.381Z,11.85
2022-10-01T11:18:45.488Z,9.75
2022-10-01T11:21:46.763Z,8.73
2022-10-01T11:27:15.748Z,12.95
2022-10-01T11:33:12.239Z,15.35
2022-10-01T11:35:55.756Z,11.93
2022-10-01T11:38:43.252Z,13.65
2022-10-01T11:41:21.644Z,11.48
2022-10-01T11:46:53.554Z,7.10
2022-10-01T11:49:33.655Z,8.30
2022-10-01T11:55:35.002Z,8.82
2022-10-01T11:58:43.040Z,15.00
2022-10-01T12:07:38.484Z,9.38
2022-10-01T12:10:21.147Z,9.32
2022-10-01T12:12:54.360Z,10.60
2022-10-01T12:15:29.064Z,7.15
2022-10-01T12:18:01.591Z,8.80
2022-10-01T12:20:34.630Z,10.50
2022-10-01T12:23:03.238Z,13.20
2022-10-01T12:25:43.096Z,9.85
2022-10-01T12:28:24.072Z,11.45
2022-10-01T12:31:06.344Z,11.57
2022-10-01T12:36:42.818Z,9.35
2022-10-01T12:39:14.442Z,10.40
2022-10-01T12:41:50.833Z,9.15
2022-10-01T12:44:26.186Z,16.15
2022-10-01T12:47:03.809Z,15.70
2022-10-01T12:49:41.430Z,13.20
2022-10-01T12:52:33.765Z,10.25
2022-10-01T12:55:35.339Z,7.43
2022-10-01T12:58:01.776Z,9.23
2022-10-01T13:00:35.799Z,7.55
2022-10-01T13:06:21.820Z,12.13
2022-10-01T13:12:48.514Z,7.45
2022-10-01T13:15:21.561Z,9.23
2022-10-01T13:17:57.464Z,9.02
2022-10-01T13:20:27.907Z,12.07
2022-10-01T13:23:12.619Z,10.77
2022-10-01T13:28:37.387Z,9.52
2022-10-01T13:31:15.518Z,9.68
2022-10-01T13:33:43.172Z,12.05
2022-10-01T13:36:10.784Z,12.20
2022-10-01T13:38:46.946Z,12.07
2022-10-01T13:41:29.903Z,14.70
2022-10-01T13:47:08.229Z,8.35
2022-10-01T13:49:36.494Z,11.40
2022-10-01T13:52:04.772Z,12.65
2022-10-01T13:54:37.555Z,11.63
2022-10-01T13:57:21.042Z,11.18
2022-10-01T14:00:17.748Z,13.50
2022-10-01T14:03:04.805Z,9.98
2022-10-01T14:05:36.726Z,8.50
2022-10-01T14:08:14.639Z,15.10
2022-10-01T14:16:47.869Z,11.07
2022-10-01T14:19:19.973Z,14.55
2022-10-01T14:22:13.205Z,7.22
2022-10-01T14:24:49.106Z,5.97
2022-10-01T14:27:29.097Z,8.85
2022-10-01T14:30:15.928Z,10.95
2022-10-01T14:33:07.696Z,10.07
2022-10-01T14:35:45.375Z,9.07
2022-10-01T14:38:13.871Z,6.90
2022-10-01T14:40:43.919Z,10.45
2022-10-01T14:43:17.328Z,7.32
2022-10-01T14:45:57.517Z,14.95
2022-10-01T14:48:25.816Z,11.65
2022-10-01T14:50:55.438Z,11.50
2022-10-01T14:56:14.487Z,11.27
2022-10-01T14:58:52.578Z,7.90
2022-10-01T15:01:31.468Z,8.35
2022-10-01T15:03:58.196Z,8.63
2022-10-01T15:06:33.701Z,7.25
2022-10-01T15:09:12.040Z,8.50
2022-10-01T15:14:22.826Z,5.68
2022-10-01T15:16:49.706Z,7.20
2022-10-01T15:19:19.583Z,9.82
2022-10-01T15:21:57.407Z,8.07
2022-10-01T15:27:25.980Z,7.47
2022-10-01T15:30:02.135Z,9.30
2022-10-01T15:32:29.127Z,10.80
2022-10-01T15:37:40.425Z,6.15
2022-10-01T15:40:20.908Z,11.68
2022-10-01T15:43:07.606Z,10.45
2022-10-01T15:45:35.279Z,11.57
2022-10-01T15:50:43.421Z,6.68
2022-10-01T15:53:19.633Z,8.98
2022-10-01T15:55:50.320Z,11.43
2022-10-01T15:58:22.523Z,11.02
2022-10-01T16:01:09.367Z,14.38
2022-10-01T16:03:42.339Z,11.45
2022-10-01T16:06:18.475Z,12.90
2022-10-01T16:09:06.610Z,8.48
2022-10-01T16:12:02.385Z,16.35
2022-10-01T16:14:36.805Z,16.77
2022-10-01T16:17:23.012Z,8.43
2022-10-01T16:20:00.717Z,13.38
2022-10-01T16:22:37.502Z,9.43
2022-10-01T16:25:19.539Z,9.27
2022-10-01T16:28:05.961Z,10.95
2022-10-01T16:30:33.885Z,13.10
2022-10-01T16:33:04.441Z,9.57
2022-10-01T16:35:33.076Z,11.25
2022-10-01T16:37:59.616Z,11.98
2022-10-01T16:40:29.938Z,13.57
2022-10-01T16:42:57.923Z,16.85
2022-10-01T16:45:27.820Z,16.60
2022-10-01T16:47:58.397Z,11.63
2022-10-01T16:50:25.728Z,18.40
2022-10-01T16:52:53.601Z,19.20
2022-10-01T16:55:30.581Z,13.88
2022-10-01T16:57:57.198Z,15.75
2022-10-01T17:00:25.945Z,14.77
2022-10-01T17:02:53.698Z,13.07
2022-10-01T17:05:20.177Z,12.13
2022-10-01T17:07:46.885Z,10.75
2022-10-01T17:10:14.120Z,13.73
2022-10-01T17:12:41.240Z,14.63
2022-10-01T17:15:08.378Z,11.10
2022-10-01T17:17:35.407Z,22.77
2022-10-01T17:20:01.896Z,21.60
2022-10-01T17:22:28.450Z,12.43
2022-10-01T17:24:55.013Z,22.58
2022-10-01T17:27:21.739Z,15.70
2022-10-01T17:29:48.274Z,13.18
2022-10-01T17:32:18.662Z,15.43
2022-10-01T17:34:45.950Z,14.23
2022-10-01T17:37:12.962Z,12.93
2022-10-01T17:39:41.030Z,10.27
2022-10-01T17:42:07.635Z,11.73
2022-10-01T17:44:34.151Z,9.38
2022-10-01T17:47:00.652Z,8.98
2022-10-01T17:49:27.226Z,8.15
2022-10-01T17:51:53.796Z,8.73
2022-10-01T17:54:21.181Z,13.13
2022-10-01T17:56:48.761Z,15.45
2022-10-01T17:59:15.367Z,8.55
2022-10-01T18:01:41.932Z,9.23
2022-10-01T18:04:12.297Z,6.05
2022-10-01T18:06:39.737Z,8.63
2022-10-01T18:09:07.000Z,11.38
2022-10-01T18:11:33.766Z,14.68
2022-10-01T18:14:00.309Z,11.18
2022-10-01T18:16:27.502Z,11.55
2022-10-01T18:21:44.888Z,19.88
2022-10-01T18:24:11.367Z,17.15
2022-10-01T18:26:38.428Z,13.90
2022-10-01T18:29:05.293Z,14.57
2022-10-01T18:31:38.056Z,14.00
2022-10-01T18:34:15.821Z,15.20
2022-10-01T18:36:51.737Z,17.63
2022-10-01T18:39:40.845Z,19.42
2022-10-01T18:42:17.273Z,15.68
2022-10-01T18:44:43.732Z,16.02
2022-10-01T18:47:31.935Z,16.05
2022-10-01T18:50:04.620Z,21.00
2022-10-01T18:53:08.890Z,17.88
2022-10-01T18:56:00.114Z,11.48
2022-10-01T18:58:46.846Z,15.93
2022-10-01T19:01:13.377Z,13.57
2022-10-01T19:04:07.934Z,12.35
2022-10-01T19:06:41.198Z,14.55
2022-10-01T19:09:11.165Z,15.38
2022-10-01T19:11:50.354Z,16.23
2022-10-01T19:14:37.598Z,15.68
2022-10-01T19:17:25.656Z,13.35
2022-10-01T19:20:15.975Z,10.98
2022-10-01T19:23:13.164Z,13.63
2022-10-01T19:25:55.666Z,14.98
2022-10-01T19:28:28.378Z,17.52
2022-10-01T19:31:04.234Z,14.80
2022-10-01T19:33:33.686Z,17.33
2022-10-01T19:36:00.491Z,16.33
2022-10-01T19:38:35.538Z,9.50
2022-10-01T19:41:12.003Z,12.02
2022-10-01T19:43:49.594Z,15.77
2022-10-01T19:46:23.401Z,13.68
2022-10-01T19:48:57.134Z,15.45
2022-10-01T19:51:28.582Z,14.73
2022-10-01T19:54:01.060Z,12.80
2022-10-01T19:56:33.572Z,16.60
2022-10-01T19:59:26.833Z,14.48
2022-10-01T20:02:02.631Z,13.43
2022-10-01T20:04:48.029Z,11.90
2022-10-01T20:07:22.285Z,15.10
2022-10-01T20:10:05.709Z,15.43
2022-10-01T20:12:42.195Z,16.13
2022-10-01T20:15:35.537Z,15.48
2022-10-01T20:18:18.725Z,13.15
2022-10-01T20:20:48.305Z,21.55
2022-10-01T20:23:36.841Z,16.80
2022-10-01T20:26:11.991Z,18.50
2022-10-01T20:28:52.444Z,19.50
2022-10-01T20:31:43.313Z,16.02
2022-10-01T20:34:18.622Z,17.92
2022-10-01T20:39:32.686Z,15.13
2022-10-01T20:41:59.473Z,15.48
2022-10-01T20:44:35.512Z,16.60
2022-10-01T20:47:12.055Z,17.65
2022-10-01T20:50:09.856Z,23.25
2022-10-01T20:53:03.760Z,20.13
2022-10-01T20:55:40.647Z,15.45
2022-10-01T20:58:13.083Z,21.45
2022-10-01T21:00:42.022Z,11.40
2022-10-01T21:03:23.349Z,13.45
2022-10-01T21:06:06.329Z,16.40
2022-10-01T21:08:41.653Z,20.23
2022-10-01T21:11:14.937Z,18.55
2022-10-01T21:13:55.793Z,17.77
2022-10-01T21:16:34.892Z,27.02
2022-10-01T21:19:34.611Z,14.45
2022-10-01T21:22:32.356Z,19.08
2022-10-01T21:25:19.042Z,21.60
2022-10-01T21:28:05.159Z,20.73
2022-10-01T21:31:07.479Z,19.88
2022-10-01T21:33:38.769Z,15.10
2022-10-01T21:36:23.012Z,5.57
2022-10-01T21:39:20.868Z,8.98
2022-10-01T21:42:03.492Z,4.70
2022-10-01T21:44:38.939Z,8.13
2022-10-01T21:47:40.820Z,6.63
2022-10-01T21:50:48.903Z,7.18
2022-10-01T21:53:40.341Z,8.57
2022-10-01T21:56:39.293Z,7.75
2022-10-01T21:59:28.651Z,17.48
2022-10-01T22:02:04.527Z,12.52
2022-10-01T22:04:50.566Z,11.10
2022-10-01T22:07:19.969Z,8.63
2022-10-01T22:10:10.914Z,12.65
2022-10-01T22:12:40.521Z,19.55
2022-10-01T22:15:21.158Z,10.60
2022-10-01T22:17:49.954Z,13.55
2022-10-01T22:20:18.149Z,12.35
2022-10-01T22:22:45.766Z,7.40
2022-10-01T22:25:13.785Z,9.82
2022-10-01T22:27:59.367Z,10.57
2022-10-01T22:33:05.657Z,9.98
2022-10-01T22:35:43.250Z,10.57
2022-10-01T22:38:23.648Z,8.32
2022-10-01T22:40:55.565Z,19.00
2022-10-01T22:43:22.099Z,19.48
2022-10-01T22:46:00.999Z,12.18
2022-10-01T22:48:39.377Z,22.60
2022-10-01T22:51:56.608Z,19.80
2022-10-01T22:54:52.269Z,24.98
2022-10-01T22:57:37.954Z,23.40
2022-10-01T23:02:41.012Z,25.02
2022-10-01T23:05:11.057Z,20.90
2022-10-01T23:07:37.463Z,27.83
2022-10-01T23:10:10.805Z,36.58
2022-10-01T23:12:49.269Z,27.13
2022-10-01T23:15:24.564Z,20.98
2022-10-01T23:20:20.490Z,26.70
2022-10-01T23:22:46.942Z,30.77
2022-10-01T23:25:23.852Z,20.90
2022-10-01T23:27:53.539Z,22.38
2022-10-01T23:30:20.384Z,31.02
2022-10-01T23:33:05.669Z,21.02
2022-10-01T23:35:50.881Z,20.90
2022-10-01T23:38:32.578Z,16.75
2022-10-01T23:41:03.962Z,25.58
2022-10-01T23:43:39.038Z,27.15
2022-10-01T23:46:12.224Z,15.43
2022-10-01T23:48:48.453Z,22.70
2022-10-01T23:51:32.952Z,19.05
2022-10-01T23:54:05.400Z,19.92
2022-10-01T23:57:03.595Z,15.98
2022-10-01T23:59:36.161Z,19.52
